Hlavní strana
METAR-TAF:

METAR-TAF

Letiště :

Letiště Anchorage

Anchorage, Aljaška, Spojené státy americké

zeměpisná šířka: 61-10-28N, zeměpisná délka: 149-59-46W, výška: 44 m

Aktuální stav počasí

Zpráva byla vytvořena před 59 minutami, v 10:53 UTC
Východoseverovýchodní vítr 6 kt
Teplota -12°C
Vlhkost vzduchu 56%
Tlak 997 hPa
Viditelnost: 16.1 km
Oblačno až skoro zataženo ve výšce 11000 ft

METAR: PANC 241053Z 07006KT 10SM BKN110 M12/M19 A2945 RMK AO2 SLP976 T11221189

Čas: 02:52 (11:52 UTC)

Předpověď počasí

Zpráva byla vytvořena před 19 minutami, v 11:33 UTC
Předpověď platná od 24 v 12 UTC do 25 v 18 UTC
Severní vítr 5 kt
Viditelnost: 10 km
Polojasno ve výšce 3000 ft
Zataženo ve výšce 13000 ft
přeháňky v blízkosti
Od 25 v 0400 UTC
Severní vítr 14 kt s nárazy do 22 kt
Viditelnost: 10 km
Skoro jasno ve výšce 6000 ft
Oblačno až skoro zataženo ve výšce 15000 ft

TAF: PANC 241133Z 2412/2518 36005KT P6SM VCSH SCT030 OVC130 FM250400 36014G22KT P6SM FEW060 BKN150

Stav a předpovědi počasí z více než 4 000 letišť (zprávy METAR a TAF).

Červené a žluté tečky na mapě představují dostupné meteorologické stanice.

Když kurzor umístíte na tečku, zobrazí se název stanice.

Pak kliknutím zobrazíte stav a předpověď počasí.

Chcete-li změnit mapu, kliknutím na zelené tlačítko se znaménkem +mapu přiblížíte, kliknutím na zelené tlačítko se znaménkem – mapu oddálíte a kliknutím na zelené šipky přejdete na sousední mapy.


METAR-TAF: